sensor_id;sensor_type;location;lat;lon;timestamp;P1;P2;P0
43180;PMS7003;28798;54.950;26.362;2022-09-29T00:43:58;1.6;1;1
43180;PMS7003;28798;54.950;26.362;2022-09-29T00:48:30;1.6;1;1
43180;PMS7003;28798;54.950;26.362;2022-09-29T00:53:30;1.1;1.1;1
43180;PMS7003;28798;54.950;26.362;2022-09-29T00:58:54;1.1;1.1;1
43180;PMS7003;28798;54.950;26.362;2022-09-29T01:03:42;1.9;0.9;0.8
43180;PMS7003;28798;54.950;26.362;2022-09-29T01:08:58;2.2;2.2;1.6
43180;PMS7003;28798;54.950;26.362;2022-09-29T01:13:30;2.2;2.2;1.6
43180;PMS7003;28798;54.950;26.362;2022-09-29T01:18:30;2.2;2.2;1.6
43180;PMS7003;28798;54.950;26.362;2022-09-29T01:23:42;2.2;2.2;1.6
43180;PMS7003;28798;54.950;26.362;2022-09-29T01:28:38;1.4;1.4;0.8
43180;PMS7003;28798;54.950;26.362;2022-09-29T01:38:55;2.4;2.1;1.4
43180;PMS7003;28798;54.950;26.362;2022-09-29T01:43:49;2.4;2.1;1.4
43180;PMS7003;28798;54.950;26.362;2022-09-29T01:48:39;2.4;2.1;1.4
43180;PMS7003;28798;54.950;26.362;2022-09-29T01:53:34;2.5;2;1.1
43180;PMS7003;28798;54.950;26.362;2022-09-29T01:58:42;2.5;2;1.1
43180;PMS7003;28798;54.950;26.362;2022-09-29T02:03:45;2.5;2;1.1
43180;PMS7003;28798;54.950;26.362;2022-09-29T02:13:58;2.9;1.8;1.3
43180;PMS7003;28798;54.950;26.362;2022-09-29T02:18:32;2.1;2.1;1.4
43180;PMS7003;28798;54.950;26.362;2022-09-29T02:23:30;2.1;2.1;1.4
43180;PMS7003;28798;54.950;26.362;2022-09-29T02:28:30;1.3;1.3;1.1
43180;PMS7003;28798;54.950;26.362;2022-09-29T02:33:30;1.3;1.3;1.1
43180;PMS7003;28798;54.950;26.362;2022-09-29T02:38:53;1.3;1.3;1.1
43180;PMS7003;28798;54.950;26.362;2022-09-29T02:43:35;1.6;1.6;1.1
43180;PMS7003;28798;54.950;26.362;2022-09-29T02:48:45;1.6;1.6;1.1
43180;PMS7003;28798;54.950;26.362;2022-09-29T02:53:43;1.6;1.6;1.1
43180;PMS7003;28798;54.950;26.362;2022-09-29T03:08:38;1.6;1.6;1.1
43180;PMS7003;28798;54.950;26.362;2022-09-29T03:13:30;3.5;2.8;1.6
43180;PMS7003;28798;54.950;26.362;2022-09-29T03:18:30;3.2;2.9;2
43180;PMS7003;28798;54.950;26.362;2022-09-29T03:23:30;3.2;2.9;2
43180;PMS7003;28798;54.950;26.362;2022-09-29T03:28:40;3.7;3.1;2.1
43180;PMS7003;28798;54.950;26.362;2022-09-29T03:33:42;3.7;3.1;2.1
43180;PMS7003;28798;54.950;26.362;2022-09-29T03:38:42;3.1;2.3;1.9
43180;PMS7003;28798;54.950;26.362;2022-09-29T03:43:36;0.4;0.4;0
43180;PMS7003;28798;54.950;26.362;2022-09-29T03:48:36;0.4;0.4;0
43180;PMS7003;28798;54.950;26.362;2022-09-29T03:53:46;3.9;3.4;1.6
43180;PMS7003;28798;54.950;26.362;2022-09-29T03:58:38;3.9;3.4;1.6
43180;PMS7003;28798;54.950;26.362;2022-09-29T04:03:44;3.9;3.4;1.6
43180;PMS7003;28798;54.950;26.362;2022-09-29T04:23:52;2.7;2.2;1.4
43180;PMS7003;28798;54.950;26.362;2022-09-29T04:28:40;2.7;2.2;1.4
43180;PMS7003;28798;54.950;26.362;2022-09-29T04:33:58;2.7;2.2;1.4
43180;PMS7003;28798;54.950;26.362;2022-09-29T04:43:40;2.7;2.2;1.4
43180;PMS7003;28798;54.950;26.362;2022-09-29T04:48:38;3.5;2.7;1.8
43180;PMS7003;28798;54.950;26.362;2022-09-29T04:53:38;3.5;2.7;1.8
43180;PMS7003;28798;54.950;26.362;2022-09-29T04:58:30;3.5;2.7;1.8
43180;PMS7003;28798;54.950;26.362;2022-09-29T05:03:40;3.5;2.7;1.8
43180;PMS7003;28798;54.950;26.362;2022-09-29T05:08:52;3.5;2.7;1.8
43180;PMS7003;28798;54.950;26.362;2022-09-29T05:13:30;4.9;4.8;2.7
43180;PMS7003;28798;54.950;26.362;2022-09-29T05:18:42;4.5;3.8;2.4
43180;PMS7003;28798;54.950;26.362;2022-09-29T05:23:30;4.5;3.8;2.4
43180;PMS7003;28798;54.950;26.362;2022-09-29T05:28:30;4.5;3.8;2.4
43180;PMS7003;28798;54.950;26.362;2022-09-29T05:38:40;3;3;2.2
43180;PMS7003;28798;54.950;26.362;2022-09-29T05:43:30;4.7;4.2;2.3
43180;PMS7003;28798;54.950;26.362;2022-09-29T05:48:46;4.7;4.2;2.3
43180;PMS7003;28798;54.950;26.362;2022-09-29T05:53:30;4.7;4.2;2.3
43180;PMS7003;28798;54.950;26.362;2022-09-29T05:58:50;5.2;5;3.1
43180;PMS7003;28798;54.950;26.362;2022-09-29T06:23:30;6;6;3.7
43180;PMS7003;28798;54.950;26.362;2022-09-29T06:28:30;6;6;3.7
43180;PMS7003;28798;54.950;26.362;2022-09-29T06:33:44;6;6;3.7
43180;PMS7003;28798;54.950;26.362;2022-09-29T06:38:52;5.6;5.6;4.1
43180;PMS7003;28798;54.950;26.362;2022-09-29T06:43:30;7.6;5.6;3.7
43180;PMS7003;28798;54.950;26.362;2022-09-29T06:48:30;7.6;5.6;3.7
43180;PMS7003;28798;54.950;26.362;2022-09-29T06:53:42;4.8;4.8;2.8
43180;PMS7003;28798;54.950;26.362;2022-09-29T06:58:42;3.6;3.6;2.2
43180;PMS7003;28798;54.950;26.362;2022-09-29T07:08:30;5;4.8;2.6
43180;PMS7003;28798;54.950;26.362;2022-09-29T07:13:44;8.6;7;4.8
43180;PMS7003;28798;54.950;26.362;2022-09-29T07:18:40;8.6;7;4.8
43180;PMS7003;28798;54.950;26.362;2022-09-29T07:23:54;8.6;7;4.8
43180;PMS7003;28798;54.950;26.362;2022-09-29T07:28:36;8;6.7;4.2
43180;PMS7003;28798;54.950;26.362;2022-09-29T07:38:30;5.6;5.4;3.9
43180;PMS7003;28798;54.950;26.362;2022-09-29T07:43:42;4.2;4.2;2.4
43180;PMS7003;28798;54.950;26.362;2022-09-29T07:48:42;6.4;5.9;3.6
43180;PMS7003;28798;54.950;26.362;2022-09-29T07:53:30;6.4;6.2;4.2
43180;PMS7003;28798;54.950;26.362;2022-09-29T07:58:36;6.4;6.2;4.2
43180;PMS7003;28798;54.950;26.362;2022-09-29T08:13:30;6.8;6.4;4.6
43180;PMS7003;28798;54.950;26.362;2022-09-29T08:18:42;5;5;2.9
43180;PMS7003;28798;54.950;26.362;2022-09-29T08:23:40;6.8;6.6;4.7
43180;PMS7003;28798;54.950;26.362;2022-09-29T08:28:40;6.8;6.6;4.7
43180;PMS7003;28798;54.950;26.362;2022-09-29T08:33:30;8.9;7.9;5.4
43180;PMS7003;28798;54.950;26.362;2022-09-29T08:43:36;7.7;7.7;5
43180;PMS7003;28798;54.950;26.362;2022-09-29T08:48:37;9;8.9;6.3
43180;PMS7003;28798;54.950;26.362;2022-09-29T08:53:37;9;8.9;6.3
43180;PMS7003;28798;54.950;26.362;2022-09-29T08:58:30;10.3;10.3;6.6
43180;PMS7003;28798;54.950;26.362;2022-09-29T09:03:43;10.3;10.3;6.6
43180;PMS7003;28798;54.950;26.362;2022-09-29T09:14:03;9.3;8.9;6.2
43180;PMS7003;28798;54.950;26.362;2022-09-29T09:18:45;10.1;10.1;6.4
43180;PMS7003;28798;54.950;26.362;2022-09-29T09:23:46;10.1;10.1;6.4
43180;PMS7003;28798;54.950;26.362;2022-09-29T09:29:03;7.3;7;5.1
43180;PMS7003;28798;54.950;26.362;2022-09-29T09:33:33;10.7;10.7;6
43180;PMS7003;28798;54.950;26.362;2022-09-29T09:38:36;10.7;10.7;6
43180;PMS7003;28798;54.950;26.362;2022-09-29T09:43:38;8.5;7.8;5.2
43180;PMS7003;28798;54.950;26.362;2022-09-29T09:48:32;8.5;7.8;5.2
43180;PMS7003;28798;54.950;26.362;2022-09-29T09:53:34;14.5;11.4;7.7
43180;PMS7003;28798;54.950;26.362;2022-09-29T10:03:30;11.1;10.4;7.7
43180;PMS7003;28798;54.950;26.362;2022-09-29T10:13:44;11.1;10.4;7.7
43180;PMS7003;28798;54.950;26.362;2022-09-29T10:18:46;10.8;10.3;8.4
43180;PMS7003;28798;54.950;26.362;2022-09-29T10:23:56;10.8;10.3;8.4
43180;PMS7003;28798;54.950;26.362;2022-09-29T10:28:38;10.8;10.3;8.4
43180;PMS7003;28798;54.950;26.362;2022-09-29T10:33:30;10.8;10.8;7.7
43180;PMS7003;28798;54.950;26.362;2022-09-29T10:43:34;11.3;10.4;5.8
43180;PMS7003;28798;54.950;26.362;2022-09-29T10:48:42;12.2;11.5;7.4
43180;PMS7003;28798;54.950;26.362;2022-09-29T10:53:37;10.4;10.3;7.6
43180;PMS7003;28798;54.950;26.362;2022-09-29T10:58:31;11.4;10.2;6.9
43180;PMS7003;28798;54.950;26.362;2022-09-29T11:03:30;8.5;8.5;5.9
43180;PMS7003;28798;54.950;26.362;2022-09-29T11:08:30;11.2;11.1;7.7
43180;PMS7003;28798;54.950;26.362;2022-09-29T11:13:44;12.1;11.8;8.4
43180;PMS7003;28798;54.950;26.362;2022-09-29T11:18:50;12.1;11.8;8.4
43180;PMS7003;28798;54.950;26.362;2022-09-29T11:24:04;12.1;11.8;8.4
43180;PMS7003;28798;54.950;26.362;2022-09-29T11:29:09;10.4;10.1;7.4
43180;PMS7003;28798;54.950;26.362;2022-09-29T11:33:36;11.2;11.2;8.2
43180;PMS7003;28798;54.950;26.362;2022-09-29T11:39:11;13.2;12.8;9.3
43180;PMS7003;28798;54.950;26.362;2022-09-29T11:43:57;13.2;12.8;9.3
43180;PMS7003;28798;54.950;26.362;2022-09-29T11:48:53;13.2;12.8;9.3
43180;PMS7003;28798;54.950;26.362;2022-09-29T11:58:49;10;10;7.3
43180;PMS7003;28798;54.950;26.362;2022-09-29T12:04:18;10;10;7.3
43180;PMS7003;28798;54.950;26.362;2022-09-29T12:23:30;12.2;11.6;8.4
43180;PMS7003;28798;54.950;26.362;2022-09-29T12:28:46;12.6;11.9;8.1
43180;PMS7003;28798;54.950;26.362;2022-09-29T12:38:33;10.7;10.7;7
43180;PMS7003;28798;54.950;26.362;2022-09-29T12:44:46;11.8;11.5;8.4
43180;PMS7003;28798;54.950;26.362;2022-09-29T12:49:21;11.8;11.5;8.4
43180;PMS7003;28798;54.950;26.362;2022-09-29T12:53:33;11.8;11.5;8.4
43180;PMS7003;28798;54.950;26.362;2022-09-29T12:58:34;11.3;11.2;7.6
43180;PMS7003;28798;54.950;26.362;2022-09-29T13:09:07;9.8;9.8;6.7
43180;PMS7003;28798;54.950;26.362;2022-09-29T13:13:50;8.4;8.2;5.6
43180;PMS7003;28798;54.950;26.362;2022-09-29T13:23:40;9.2;7.8;5.6
43180;PMS7003;28798;54.950;26.362;2022-09-29T13:28:48;7.6;7.5;5.1
43180;PMS7003;28798;54.950;26.362;2022-09-29T13:33:45;7.2;6.5;5.3
43180;PMS7003;28798;54.950;26.362;2022-09-29T13:38:31;7.3;7.3;5.9
43180;PMS7003;28798;54.950;26.362;2022-09-29T13:44:02;6.1;5.6;4.8
43180;PMS7003;28798;54.950;26.362;2022-09-29T13:48:48;6.2;6.1;3.8
43180;PMS7003;28798;54.950;26.362;2022-09-29T13:53:36;6;5.7;3.2
43180;PMS7003;28798;54.950;26.362;2022-09-29T13:58:31;6.2;6.2;4.7
43180;PMS7003;28798;54.950;26.362;2022-09-29T14:03:38;7.3;6.8;4.3
43180;PMS7003;28798;54.950;26.362;2022-09-29T14:08:30;6.8;6.8;5.7
43180;PMS7003;28798;54.950;26.362;2022-09-29T14:13:32;6.1;5.7;3.9
43180;PMS7003;28798;54.950;26.362;2022-09-29T14:18:51;6.8;6.8;5.8
43180;PMS7003;28798;54.950;26.362;2022-09-29T14:23:47;6.8;6.8;5.8
43180;PMS7003;28798;54.950;26.362;2022-09-29T14:28:44;5.4;5.4;4.3
43180;PMS7003;28798;54.950;26.362;2022-09-29T14:33:35;6;5.8;4.7
43180;PMS7003;28798;54.950;26.362;2022-09-29T14:38:46;7.7;7.1;6.1
43180;PMS7003;28798;54.950;26.362;2022-09-29T14:44:35;8.3;7.8;6.2
43180;PMS7003;28798;54.950;26.362;2022-09-29T14:48:57;7.8;7.6;5.9
43180;PMS7003;28798;54.950;26.362;2022-09-29T14:53:50;6.9;6.7;5.8
43180;PMS7003;28798;54.950;26.362;2022-09-29T14:59:10;5.6;5.6;4.2
43180;PMS7003;28798;54.950;26.362;2022-09-29T15:03:32;5.8;5.5;4.2
43180;PMS7003;28798;54.950;26.362;2022-09-29T15:08:59;6.6;6.6;5.1
43180;PMS7003;28798;54.950;26.362;2022-09-29T15:13:44;6.2;6;4.6
43180;PMS7003;28798;54.950;26.362;2022-09-29T15:18:55;6.4;5.8;5.3
43180;PMS7003;28798;54.950;26.362;2022-09-29T15:28:33;4.6;4.3;3.3
43180;PMS7003;28798;54.950;26.362;2022-09-29T15:38:37;6.2;5.8;4.9
43180;PMS7003;28798;54.950;26.362;2022-09-29T15:43:37;5.2;4.5;3.6
43180;PMS7003;28798;54.950;26.362;2022-09-29T15:48:30;5.6;5.6;4.7
43180;PMS7003;28798;54.950;26.362;2022-09-29T15:53:30;6.2;6.2;4.8
43180;PMS7003;28798;54.950;26.362;2022-09-29T15:58:34;6.2;6.2;4.8
43180;PMS7003;28798;54.950;26.362;2022-09-29T16:03:50;6.7;6.5;5.4
43180;PMS7003;28798;54.950;26.362;2022-09-29T16:08:45;8.7;8.2;6.1
43180;PMS7003;28798;54.950;26.362;2022-09-29T16:13:45;7.4;7.4;6.2
43180;PMS7003;28798;54.950;26.362;2022-09-29T16:18:32;8.8;7.9;5.6
43180;PMS7003;28798;54.950;26.362;2022-09-29T16:23:35;7.7;6.9;4.6
43180;PMS7003;28798;54.950;26.362;2022-09-29T16:28:30;8.7;7.8;5.4
43180;PMS7003;28798;54.950;26.362;2022-09-29T16:38:38;7.9;7.9;6.5
43180;PMS7003;28798;54.950;26.362;2022-09-29T16:43:30;6.4;6.4;5.3
43180;PMS7003;28798;54.950;26.362;2022-09-29T16:48:42;10.4;8.2;6.3
43180;PMS7003;28798;54.950;26.362;2022-09-29T16:53:42;7.9;7.1;5.7
43180;PMS7003;28798;54.950;26.362;2022-09-29T16:58:45;6.9;6.8;5.5
43180;PMS7003;28798;54.950;26.362;2022-09-29T17:18:30;7.2;6.8;5.3
43180;PMS7003;28798;54.950;26.362;2022-09-29T17:23:42;6.3;6.3;5.5
43180;PMS7003;28798;54.950;26.362;2022-09-29T17:28:30;7.7;6.9;5.5
43180;PMS7003;28798;54.950;26.362;2022-09-29T17:33:36;6.8;6.8;5.8
43180;PMS7003;28798;54.950;26.362;2022-09-29T17:38:54;5.4;5.2;4.3
43180;PMS7003;28798;54.950;26.362;2022-09-29T17:43:42;6.2;5.5;4.3
43180;PMS7003;28798;54.950;26.362;2022-09-29T17:48:30;7.6;7;5.9
43180;PMS7003;28798;54.950;26.362;2022-09-29T17:53:30;7.6;7;5.9
43180;PMS7003;28798;54.950;26.362;2022-09-29T17:58:30;5.5;5.5;3.9
43180;PMS7003;28798;54.950;26.362;2022-09-29T18:03:30;5.5;5.5;3.9
43180;PMS7003;28798;54.950;26.362;2022-09-29T18:08:44;5.6;5.1;4.2
43180;PMS7003;28798;54.950;26.362;2022-09-29T18:14:08;8.3;7.8;5.6
43180;PMS7003;28798;54.950;26.362;2022-09-29T18:18:30;4.8;4.3;2.8
43180;PMS7003;28798;54.950;26.362;2022-09-29T18:23:42;4.8;4.3;2.8
43180;PMS7003;28798;54.950;26.362;2022-09-29T18:28:42;5.1;4.5;3.4
43180;PMS7003;28798;54.950;26.362;2022-09-29T18:38:30;5.9;5.4;3
43180;PMS7003;28798;54.950;26.362;2022-09-29T18:43:48;6.3;5.9;3.8
43180;PMS7003;28798;54.950;26.362;2022-09-29T18:48:30;5.5;5.5;4.3
43180;PMS7003;28798;54.950;26.362;2022-09-29T18:53:30;7.4;6.2;5.1
43180;PMS7003;28798;54.950;26.362;2022-09-29T18:58:30;7.4;6.2;5.1
43180;PMS7003;28798;54.950;26.362;2022-09-29T19:03:30;5;5;3.2
43180;PMS7003;28798;54.950;26.362;2022-09-29T19:08:42;5;5;3.2
43180;PMS7003;28798;54.950;26.362;2022-09-29T19:13:58;4.9;4.9;3.2
43180;PMS7003;28798;54.950;26.362;2022-09-29T19:18:57;5.2;5.1;3.7
43180;PMS7003;28798;54.950;26.362;2022-09-29T19:23:34;6.5;5.8;4.7
43180;PMS7003;28798;54.950;26.362;2022-09-29T19:28:30;6.5;5.8;4.7
43180;PMS7003;28798;54.950;26.362;2022-09-29T19:33:42;4.2;4.2;3.4
43180;PMS7003;28798;54.950;26.362;2022-09-29T19:38:30;4.2;4.2;3.4
43180;PMS7003;28798;54.950;26.362;2022-09-29T19:43:36;5.3;5.1;3.7
43180;PMS7003;28798;54.950;26.362;2022-09-29T19:48:48;5.2;4.4;3.6
43180;PMS7003;28798;54.950;26.362;2022-09-29T19:54:03;5.2;4.4;3.6
43180;PMS7003;28798;54.950;26.362;2022-09-29T19:58:30;3.8;3.8;2.9
43180;PMS7003;28798;54.950;26.362;2022-09-29T20:03:42;6.9;6.8;3.9
43180;PMS7003;28798;54.950;26.362;2022-09-29T20:13:30;4.5;4.5;3.3
43180;PMS7003;28798;54.950;26.362;2022-09-29T20:18:42;4.1;4.1;3.5
43180;PMS7003;28798;54.950;26.362;2022-09-29T20:23:30;4.1;4.1;3.5
43180;PMS7003;28798;54.950;26.362;2022-09-29T20:28:58;4.1;4.1;3.5
43180;PMS7003;28798;54.950;26.362;2022-09-29T20:33:46;5.2;5.2;3.4
43180;PMS7003;28798;54.950;26.362;2022-09-29T20:38:32;5.1;5.1;3.4
43180;PMS7003;28798;54.950;26.362;2022-09-29T20:43:34;5.1;5.1;3.4
43180;PMS7003;28798;54.950;26.362;2022-09-29T20:48:42;5;4.4;3.8
43180;PMS7003;28798;54.950;26.362;2022-09-29T20:53:43;5;4.4;3.8
43180;PMS7003;28798;54.950;26.362;2022-09-29T20:58:30;5;4.4;3.8
43180;PMS7003;28798;54.950;26.362;2022-09-29T21:23:35;5.2;5.2;4
43180;PMS7003;28798;54.950;26.362;2022-09-29T21:28:31;5.4;4.5;3.9
43180;PMS7003;28798;54.950;26.362;2022-09-29T21:33:52;5.4;4.5;3.9
43180;PMS7003;28798;54.950;26.362;2022-09-29T21:44:17;4.1;4.1;3.3
43180;PMS7003;28798;54.950;26.362;2022-09-29T21:48:57;4.1;4.1;3.3
43180;PMS7003;28798;54.950;26.362;2022-09-29T21:53:30;4.7;4.7;3.2
43180;PMS7003;28798;54.950;26.362;2022-09-29T21:58:30;4.7;4.7;3.2
43180;PMS7003;28798;54.950;26.362;2022-09-29T22:03:56;5.1;5.1;3.8
43180;PMS7003;28798;54.950;26.362;2022-09-29T22:08:44;3.8;3.2;2.4
43180;PMS7003;28798;54.950;26.362;2022-09-29T22:13:49;3.8;3.2;2.4
43180;PMS7003;28798;54.950;26.362;2022-09-29T22:18:35;5.1;4.6;3.5
43180;PMS7003;28798;54.950;26.362;2022-09-29T22:23:30;5.1;4.6;3.5
43180;PMS7003;28798;54.950;26.362;2022-09-29T22:28:43;5.5;5.5;2.9
43180;PMS7003;28798;54.950;26.362;2022-09-29T22:33:42;3.9;3.9;3.1
43180;PMS7003;28798;54.950;26.362;2022-09-29T22:48:42;3.9;3.9;3.1
43180;PMS7003;28798;54.950;26.362;2022-09-29T22:53:30;5.3;5.3;3.5
43180;PMS7003;28798;54.950;26.362;2022-09-29T22:58:30;5.3;5.3;3.5
43180;PMS7003;28798;54.950;26.362;2022-09-29T23:03:32;3.4;2.9;2
43180;PMS7003;28798;54.950;26.362;2022-09-29T23:08:30;3.4;2.9;2
43180;PMS7003;28798;54.950;26.362;2022-09-29T23:13:30;3.2;3.2;2.6
43180;PMS7003;28798;54.950;26.362;2022-09-29T23:18:55;2.6;2.6;1.6
43180;PMS7003;28798;54.950;26.362;2022-09-29T23:23:42;2.6;2.6;1.6
43180;PMS7003;28798;54.950;26.362;2022-09-29T23:28:30;4.6;4.6;3.4
43180;PMS7003;28798;54.950;26.362;2022-09-29T23:33:30;4.6;4.6;3.4
43180;PMS7003;28798;54.950;26.362;2022-09-29T23:48:44;3.1;3.1;2
43180;PMS7003;28798;54.950;26.362;2022-09-29T23:53:30;2.1;2.1;1.8
43180;PMS7003;28798;54.950;26.362;2022-09-29T23:58:30;6.1;5.5;3.3
